Terminal Aerodrome Forecast
Issued by NWS

Home | Current Version | Previous Version | Text Only | Print | Product List | Glossary On
Versions: 1 2 3 4 5 6 7 8 9 10 11 12 13 14
774
FTPA31 PHFO 221731
TAFHOG
TAF
PHOG 221731Z 2218/2318 06010KT P6SM FEW035 SCT050
     FM222000 06018G28KT P6SM FEW035 SCT050
     FM230400 05015G21KT P6SM FEW050
     FM230800 05009KT P6SM FEW035 SCT050
      AMD LTD TO VIS AND WIND AFT 230400=

USA.gov is the U.S. government's official web portal to all federal, state and local government web resources and services.